sensor_id;sensor_type;location;lat;lon;timestamp;temperature;humidity
34147;DHT22;20423;49.448;9.056;2022-08-01T00:00:26;19.60;99.90
34147;DHT22;20423;49.448;9.056;2022-08-01T00:02:51;19.50;99.90
34147;DHT22;20423;49.448;9.056;2022-08-01T00:05:17;19.50;99.90
34147;DHT22;20423;49.448;9.056;2022-08-01T00:07:43;19.40;99.90
34147;DHT22;20423;49.448;9.056;2022-08-01T00:10:11;19.40;99.90
34147;DHT22;20423;49.448;9.056;2022-08-01T00:12:38;19.30;99.90
34147;DHT22;20423;49.448;9.056;2022-08-01T00:15:08;19.30;99.90
34147;DHT22;20423;49.448;9.056;2022-08-01T00:17:34;19.30;99.90
34147;DHT22;20423;49.448;9.056;2022-08-01T00:20:01;19.40;99.90
34147;DHT22;20423;49.448;9.056;2022-08-01T00:22:30;19.40;99.90
34147;DHT22;20423;49.448;9.056;2022-08-01T00:24:55;19.30;99.90
34147;DHT22;20423;49.448;9.056;2022-08-01T00:27:21;19.30;99.90
34147;DHT22;20423;49.448;9.056;2022-08-01T00:29:47;19.20;99.90
34147;DHT22;20423;49.448;9.056;2022-08-01T00:32:12;19.10;99.90
34147;DHT22;20423;49.448;9.056;2022-08-01T00:34:38;19.00;99.90
34147;DHT22;20423;49.448;9.056;2022-08-01T00:37:10;19.20;99.90
34147;DHT22;20423;49.448;9.056;2022-08-01T00:39:35;19.20;99.90
34147;DHT22;20423;49.448;9.056;2022-08-01T00:42:09;19.20;99.90
34147;DHT22;20423;49.448;9.056;2022-08-01T00:44:35;19.20;99.90
34147;DHT22;20423;49.448;9.056;2022-08-01T00:47:01;19.10;99.90
34147;DHT22;20423;49.448;9.056;2022-08-01T00:49:27;19.00;99.90
34147;DHT22;20423;49.448;9.056;2022-08-01T00:51:53;18.90;99.90
34147;DHT22;20423;49.448;9.056;2022-08-01T00:57:23;18.90;99.90
34147;DHT22;20423;49.448;9.056;2022-08-01T00:59:48;18.90;99.90
34147;DHT22;20423;49.448;9.056;2022-08-01T01:02:14;18.90;99.90
34147;DHT22;20423;49.448;9.056;2022-08-01T01:04:40;19.00;99.90
34147;DHT22;20423;49.448;9.056;2022-08-01T01:07:28;18.90;99.90
34147;DHT22;20423;49.448;9.056;2022-08-01T01:13:09;18.90;99.90
34147;DHT22;20423;49.448;9.056;2022-08-01T01:15:54;19.00;99.90
34147;DHT22;20423;49.448;9.056;2022-08-01T01:18:25;19.00;99.90
34147;DHT22;20423;49.448;9.056;2022-08-01T01:27:07;18.90;99.90
34147;DHT22;20423;49.448;9.056;2022-08-01T01:29:50;18.80;99.90
34147;DHT22;20423;49.448;9.056;2022-08-01T01:32:33;18.80;99.90
34147;DHT22;20423;49.448;9.056;2022-08-01T01:35:26;18.70;99.90
34147;DHT22;20423;49.448;9.056;2022-08-01T01:38:04;18.60;99.90
34147;DHT22;20423;49.448;9.056;2022-08-01T01:40:30;18.50;99.90
34147;DHT22;20423;49.448;9.056;2022-08-01T01:42:57;18.40;99.90
34147;DHT22;20423;49.448;9.056;2022-08-01T01:45:24;18.30;99.90
34147;DHT22;20423;49.448;9.056;2022-08-01T01:47:51;18.20;99.90
34147;DHT22;20423;49.448;9.056;2022-08-01T01:50:20;18.10;99.90
34147;DHT22;20423;49.448;9.056;2022-08-01T01:52:49;18.10;99.90
34147;DHT22;20423;49.448;9.056;2022-08-01T01:55:18;17.90;99.90
34147;DHT22;20423;49.448;9.056;2022-08-01T01:57:45;17.80;99.90
34147;DHT22;20423;49.448;9.056;2022-08-01T02:00:15;17.70;99.90
34147;DHT22;20423;49.448;9.056;2022-08-01T02:02:44;17.70;99.90
34147;DHT22;20423;49.448;9.056;2022-08-01T02:05:15;17.70;99.90
34147;DHT22;20423;49.448;9.056;2022-08-01T02:07:45;17.60;99.90
34147;DHT22;20423;49.448;9.056;2022-08-01T02:10:12;17.60;99.90
34147;DHT22;20423;49.448;9.056;2022-08-01T02:12:42;17.50;99.90
34147;DHT22;20423;49.448;9.056;2022-08-01T02:15:11;17.50;99.90
34147;DHT22;20423;49.448;9.056;2022-08-01T02:17:42;17.50;99.90
34147;DHT22;20423;49.448;9.056;2022-08-01T02:20:10;17.50;99.90
34147;DHT22;20423;49.448;9.056;2022-08-01T02:22:42;17.40;99.90
34147;DHT22;20423;49.448;9.056;2022-08-01T02:25:21;17.50;99.90
34147;DHT22;20423;49.448;9.056;2022-08-01T02:27:59;17.50;99.90
34147;DHT22;20423;49.448;9.056;2022-08-01T02:30:33;17.50;99.90
34147;DHT22;20423;49.448;9.056;2022-08-01T02:33:15;17.50;99.90
34147;DHT22;20423;49.448;9.056;2022-08-01T02:35:43;17.50;99.90
34147;DHT22;20423;49.448;9.056;2022-08-01T02:38:12;17.50;99.90
34147;DHT22;20423;49.448;9.056;2022-08-01T02:40:47;17.50;99.90
34147;DHT22;20423;49.448;9.056;2022-08-01T02:43:22;17.50;99.90
34147;DHT22;20423;49.448;9.056;2022-08-01T02:45:52;17.40;99.90
34147;DHT22;20423;49.448;9.056;2022-08-01T02:48:20;17.40;99.90
34147;DHT22;20423;49.448;9.056;2022-08-01T02:50:49;17.40;99.90
34147;DHT22;20423;49.448;9.056;2022-08-01T02:53:25;17.30;99.90
34147;DHT22;20423;49.448;9.056;2022-08-01T02:55:53;17.20;99.90
34147;DHT22;20423;49.448;9.056;2022-08-01T02:58:21;17.20;99.90
34147;DHT22;20423;49.448;9.056;2022-08-01T03:00:54;17.20;99.90
34147;DHT22;20423;49.448;9.056;2022-08-01T03:03:21;17.10;99.90
34147;DHT22;20423;49.448;9.056;2022-08-01T03:05:58;17.10;99.90
34147;DHT22;20423;49.448;9.056;2022-08-01T03:08:26;17.00;99.90
34147;DHT22;20423;49.448;9.056;2022-08-01T03:10:54;17.10;99.90
34147;DHT22;20423;49.448;9.056;2022-08-01T03:13:21;17.00;99.90
34147;DHT22;20423;49.448;9.056;2022-08-01T03:15:53;17.00;99.90
34147;DHT22;20423;49.448;9.056;2022-08-01T03:18:24;16.90;99.90
34147;DHT22;20423;49.448;9.056;2022-08-01T03:20:54;16.80;99.90
34147;DHT22;20423;49.448;9.056;2022-08-01T03:23:21;16.80;99.90
34147;DHT22;20423;49.448;9.056;2022-08-01T03:25:50;16.80;99.90
34147;DHT22;20423;49.448;9.056;2022-08-01T03:28:20;16.80;99.90
34147;DHT22;20423;49.448;9.056;2022-08-01T03:30:50;16.80;99.90
34147;DHT22;20423;49.448;9.056;2022-08-01T03:33:19;16.80;99.90
34147;DHT22;20423;49.448;9.056;2022-08-01T03:35:54;16.80;99.90
34147;DHT22;20423;49.448;9.056;2022-08-01T03:38:30;16.80;99.90
34147;DHT22;20423;49.448;9.056;2022-08-01T03:41:04;16.80;99.90
34147;DHT22;20423;49.448;9.056;2022-08-01T03:44:05;17.00;99.90
34147;DHT22;20423;49.448;9.056;2022-08-01T03:46:40;17.00;99.90
34147;DHT22;20423;49.448;9.056;2022-08-01T03:49:14;17.10;99.90
34147;DHT22;20423;49.448;9.056;2022-08-01T03:51:48;17.10;99.90
34147;DHT22;20423;49.448;9.056;2022-08-01T03:54:17;17.10;99.90
34147;DHT22;20423;49.448;9.056;2022-08-01T03:56:47;17.10;99.90
34147;DHT22;20423;49.448;9.056;2022-08-01T03:59:15;17.10;99.90
34147;DHT22;20423;49.448;9.056;2022-08-01T04:01:43;17.00;99.90
34147;DHT22;20423;49.448;9.056;2022-08-01T04:04:09;17.00;99.90
34147;DHT22;20423;49.448;9.056;2022-08-01T04:06:39;17.00;99.90
34147;DHT22;20423;49.448;9.056;2022-08-01T04:09:07;17.00;99.90
34147;DHT22;20423;49.448;9.056;2022-08-01T04:11:32;17.00;99.90
34147;DHT22;20423;49.448;9.056;2022-08-01T04:13:58;16.90;99.90
34147;DHT22;20423;49.448;9.056;2022-08-01T04:16:24;16.90;99.90
34147;DHT22;20423;49.448;9.056;2022-08-01T04:22:44;16.80;99.90
34147;DHT22;20423;49.448;9.056;2022-08-01T04:25:17;16.90;99.90
34147;DHT22;20423;49.448;9.056;2022-08-01T04:27:48;16.90;99.90
34147;DHT22;20423;49.448;9.056;2022-08-01T04:30:16;17.00;99.90
34147;DHT22;20423;49.448;9.056;2022-08-01T04:32:44;17.00;99.90
34147;DHT22;20423;49.448;9.056;2022-08-01T04:35:13;17.10;99.90
34147;DHT22;20423;49.448;9.056;2022-08-01T04:37:44;17.30;99.90
34147;DHT22;20423;49.448;9.056;2022-08-01T04:40:11;17.40;99.90
34147;DHT22;20423;49.448;9.056;2022-08-01T04:42:37;17.50;99.90
34147;DHT22;20423;49.448;9.056;2022-08-01T04:45:03;17.60;99.90
34147;DHT22;20423;49.448;9.056;2022-08-01T04:47:30;17.70;99.90
34147;DHT22;20423;49.448;9.056;2022-08-01T04:49:56;17.80;99.90
34147;DHT22;20423;49.448;9.056;2022-08-01T04:52:22;17.80;99.90
34147;DHT22;20423;49.448;9.056;2022-08-01T04:54:48;17.90;99.90
34147;DHT22;20423;49.448;9.056;2022-08-01T04:57:36;17.90;99.90
34147;DHT22;20423;49.448;9.056;2022-08-01T05:00:03;17.90;99.90
34147;DHT22;20423;49.448;9.056;2022-08-01T05:02:29;18.00;99.90
34147;DHT22;20423;49.448;9.056;2022-08-01T05:04:55;18.00;99.90
34147;DHT22;20423;49.448;9.056;2022-08-01T05:07:21;18.00;99.90
34147;DHT22;20423;49.448;9.056;2022-08-01T05:09:46;18.00;99.90
34147;DHT22;20423;49.448;9.056;2022-08-01T05:12:18;18.20;99.90
34147;DHT22;20423;49.448;9.056;2022-08-01T05:14:44;18.30;99.90
34147;DHT22;20423;49.448;9.056;2022-08-01T05:17:11;18.50;99.90
34147;DHT22;20423;49.448;9.056;2022-08-01T05:19:38;18.70;99.90
34147;DHT22;20423;49.448;9.056;2022-08-01T05:22:08;18.90;99.90
34147;DHT22;20423;49.448;9.056;2022-08-01T05:24:35;19.00;99.90
34147;DHT22;20423;49.448;9.056;2022-08-01T05:27:01;19.20;99.90
34147;DHT22;20423;49.448;9.056;2022-08-01T05:29:27;19.20;99.90
34147;DHT22;20423;49.448;9.056;2022-08-01T05:31:53;19.40;99.90
34147;DHT22;20423;49.448;9.056;2022-08-01T05:34:20;19.50;99.90
34147;DHT22;20423;49.448;9.056;2022-08-01T05:36:46;19.50;99.90
34147;DHT22;20423;49.448;9.056;2022-08-01T05:39:12;19.40;99.90
34147;DHT22;20423;49.448;9.056;2022-08-01T05:41:39;19.50;99.90
34147;DHT22;20423;49.448;9.056;2022-08-01T05:44:05;19.40;99.90
34147;DHT22;20423;49.448;9.056;2022-08-01T05:46:31;19.40;99.90
34147;DHT22;20423;49.448;9.056;2022-08-01T05:48:57;19.40;99.90
34147;DHT22;20423;49.448;9.056;2022-08-01T05:51:24;19.40;99.90
34147;DHT22;20423;49.448;9.056;2022-08-01T05:53:50;19.40;99.90
34147;DHT22;20423;49.448;9.056;2022-08-01T05:56:41;19.30;99.90
34147;DHT22;20423;49.448;9.056;2022-08-01T05:59:06;19.20;99.90
34147;DHT22;20423;49.448;9.056;2022-08-01T06:01:32;19.20;99.90
34147;DHT22;20423;49.448;9.056;2022-08-01T06:04:01;19.20;99.90
34147;DHT22;20423;49.448;9.056;2022-08-01T06:06:27;19.20;99.90
34147;DHT22;20423;49.448;9.056;2022-08-01T06:08:52;19.30;99.90
34147;DHT22;20423;49.448;9.056;2022-08-01T06:11:18;19.40;99.90
34147;DHT22;20423;49.448;9.056;2022-08-01T06:14:01;19.40;99.90
34147;DHT22;20423;49.448;9.056;2022-08-01T06:16:27;19.40;99.90
34147;DHT22;20423;49.448;9.056;2022-08-01T06:18:53;19.40;99.90
34147;DHT22;20423;49.448;9.056;2022-08-01T06:21:19;19.60;99.90
34147;DHT22;20423;49.448;9.056;2022-08-01T06:23:44;19.60;99.90
34147;DHT22;20423;49.448;9.056;2022-08-01T06:26:10;19.60;99.90
34147;DHT22;20423;49.448;9.056;2022-08-01T06:28:37;19.60;99.90
34147;DHT22;20423;49.448;9.056;2022-08-01T06:31:03;19.70;99.90
34147;DHT22;20423;49.448;9.056;2022-08-01T06:33:28;19.80;99.90
34147;DHT22;20423;49.448;9.056;2022-08-01T06:35:54;20.00;99.90
34147;DHT22;20423;49.448;9.056;2022-08-01T06:38:20;20.30;99.90
34147;DHT22;20423;49.448;9.056;2022-08-01T06:40:46;20.50;99.90
34147;DHT22;20423;49.448;9.056;2022-08-01T06:43:12;20.60;99.90
34147;DHT22;20423;49.448;9.056;2022-08-01T06:45:39;20.70;99.90
34147;DHT22;20423;49.448;9.056;2022-08-01T06:48:05;20.90;99.90
34147;DHT22;20423;49.448;9.056;2022-08-01T06:50:31;21.10;99.90
34147;DHT22;20423;49.448;9.056;2022-08-01T06:52:57;21.20;99.90
34147;DHT22;20423;49.448;9.056;2022-08-01T06:55:23;21.30;99.90
34147;DHT22;20423;49.448;9.056;2022-08-01T06:57:50;21.30;99.90
34147;DHT22;20423;49.448;9.056;2022-08-01T07:00:17;21.40;99.90
34147;DHT22;20423;49.448;9.056;2022-08-01T07:02:46;21.50;99.90
34147;DHT22;20423;49.448;9.056;2022-08-01T07:05:12;21.80;99.90
34147;DHT22;20423;49.448;9.056;2022-08-01T07:07:38;21.90;99.90
34147;DHT22;20423;49.448;9.056;2022-08-01T07:10:05;21.90;99.90
34147;DHT22;20423;49.448;9.056;2022-08-01T07:12:30;22.00;99.90
34147;DHT22;20423;49.448;9.056;2022-08-01T07:15:05;22.10;99.90
34147;DHT22;20423;49.448;9.056;2022-08-01T07:17:30;22.10;99.90
34147;DHT22;20423;49.448;9.056;2022-08-01T07:19:56;21.70;99.90
34147;DHT22;20423;49.448;9.056;2022-08-01T07:22:22;21.40;99.90
34147;DHT22;20423;49.448;9.056;2022-08-01T07:25:06;21.30;99.90
34147;DHT22;20423;49.448;9.056;2022-08-01T07:27:32;21.40;99.90
34147;DHT22;20423;49.448;9.056;2022-08-01T07:29:58;21.50;99.90
34147;DHT22;20423;49.448;9.056;2022-08-01T07:32:47;21.60;99.90
34147;DHT22;20423;49.448;9.056;2022-08-01T07:35:13;21.30;99.90
34147;DHT22;20423;49.448;9.056;2022-08-01T07:37:39;21.10;99.90
34147;DHT22;20423;49.448;9.056;2022-08-01T07:40:05;21.00;99.90
34147;DHT22;20423;49.448;9.056;2022-08-01T07:42:32;21.10;99.90
34147;DHT22;20423;49.448;9.056;2022-08-01T07:44:57;21.10;99.90
34147;DHT22;20423;49.448;9.056;2022-08-01T07:47:26;21.10;99.90
34147;DHT22;20423;49.448;9.056;2022-08-01T07:49:52;20.80;99.90
34147;DHT22;20423;49.448;9.056;2022-08-01T07:52:23;20.60;99.90
34147;DHT22;20423;49.448;9.056;2022-08-01T07:55:14;20.60;99.90
34147;DHT22;20423;49.448;9.056;2022-08-01T07:57:40;20.70;99.90
34147;DHT22;20423;49.448;9.056;2022-08-01T08:00:06;20.70;99.90
34147;DHT22;20423;49.448;9.056;2022-08-01T08:02:33;20.90;99.90
34147;DHT22;20423;49.448;9.056;2022-08-01T08:04:59;21.00;99.90
34147;DHT22;20423;49.448;9.056;2022-08-01T08:07:25;21.10;99.90
34147;DHT22;20423;49.448;9.056;2022-08-01T08:09:50;21.30;99.90
34147;DHT22;20423;49.448;9.056;2022-08-01T08:12:16;21.60;99.90
34147;DHT22;20423;49.448;9.056;2022-08-01T08:14:42;21.90;99.90
34147;DHT22;20423;49.448;9.056;2022-08-01T08:17:07;23.20;99.90
34147;DHT22;20423;49.448;9.056;2022-08-01T08:19:33;23.50;99.90
34147;DHT22;20423;49.448;9.056;2022-08-01T08:22:00;23.50;99.90
34147;DHT22;20423;49.448;9.056;2022-08-01T08:24:26;23.30;99.90
34147;DHT22;20423;49.448;9.056;2022-08-01T08:26:55;22.90;99.90
34147;DHT22;20423;49.448;9.056;2022-08-01T08:29:22;22.80;99.90
34147;DHT22;20423;49.448;9.056;2022-08-01T08:31:48;22.90;99.90
34147;DHT22;20423;49.448;9.056;2022-08-01T08:34:14;23.30;99.90
34147;DHT22;20423;49.448;9.056;2022-08-01T08:36:40;23.80;99.90
34147;DHT22;20423;49.448;9.056;2022-08-01T08:39:06;24.30;99.90
34147;DHT22;20423;49.448;9.056;2022-08-01T08:45:19;24.80;99.90
34147;DHT22;20423;49.448;9.056;2022-08-01T08:47:45;26.20;99.90
34147;DHT22;20423;49.448;9.056;2022-08-01T08:50:12;25.90;99.90
34147;DHT22;20423;49.448;9.056;2022-08-01T08:52:38;25.90;99.90
34147;DHT22;20423;49.448;9.056;2022-08-01T08:55:05;25.50;99.90
34147;DHT22;20423;49.448;9.056;2022-08-01T08:57:31;25.40;99.90
34147;DHT22;20423;49.448;9.056;2022-08-01T08:59:57;24.90;99.90
34147;DHT22;20423;49.448;9.056;2022-08-01T09:05:30;27.50;99.90
34147;DHT22;20423;49.448;9.056;2022-08-01T09:07:55;28.40;99.90
34147;DHT22;20423;49.448;9.056;2022-08-01T09:14:05;29.90;99.90
34147;DHT22;20423;49.448;9.056;2022-08-01T09:16:32;29.90;99.90
34147;DHT22;20423;49.448;9.056;2022-08-01T09:19:13;29.80;99.90
34147;DHT22;20423;49.448;9.056;2022-08-01T09:21:40;30.00;99.90
34147;DHT22;20423;49.448;9.056;2022-08-01T09:24:14;30.20;98.80
34147;DHT22;20423;49.448;9.056;2022-08-01T09:26:40;29.60;99.00
34147;DHT22;20423;49.448;9.056;2022-08-01T09:29:08;28.70;99.90
34147;DHT22;20423;49.448;9.056;2022-08-01T09:31:43;29.20;99.90
34147;DHT22;20423;49.448;9.056;2022-08-01T09:34:09;29.50;99.30
34147;DHT22;20423;49.448;9.056;2022-08-01T09:36:46;30.20;98.00
34147;DHT22;20423;49.448;9.056;2022-08-01T09:39:18;30.00;97.50
34147;DHT22;20423;49.448;9.056;2022-08-01T09:41:44;30.20;97.00
34147;DHT22;20423;49.448;9.056;2022-08-01T09:44:09;30.20;96.10
34147;DHT22;20423;49.448;9.056;2022-08-01T09:46:35;30.80;96.70
34147;DHT22;20423;49.448;9.056;2022-08-01T09:49:05;31.10;95.20
34147;DHT22;20423;49.448;9.056;2022-08-01T09:51:37;30.70;95.10
34147;DHT22;20423;49.448;9.056;2022-08-01T09:54:05;30.50;94.70
34147;DHT22;20423;49.448;9.056;2022-08-01T09:56:39;30.60;94.20
34147;DHT22;20423;49.448;9.056;2022-08-01T09:59:06;30.40;94.20
34147;DHT22;20423;49.448;9.056;2022-08-01T10:01:45;30.30;93.40
34147;DHT22;20423;49.448;9.056;2022-08-01T10:04:20;30.40;93.90
34147;DHT22;20423;49.448;9.056;2022-08-01T10:06:49;30.20;94.40
34147;DHT22;20423;49.448;9.056;2022-08-01T10:09:31;29.50;93.80
34147;DHT22;20423;49.448;9.056;2022-08-01T10:11:59;28.80;94.40
34147;DHT22;20423;49.448;9.056;2022-08-01T10:14:26;28.60;95.40
34147;DHT22;20423;49.448;9.056;2022-08-01T10:16:53;28.20;95.90
34147;DHT22;20423;49.448;9.056;2022-08-01T10:19:22;27.30;97.00
34147;DHT22;20423;49.448;9.056;2022-08-01T10:25:06;26.20;99.10
34147;DHT22;20423;49.448;9.056;2022-08-01T10:27:34;26.60;99.90
34147;DHT22;20423;49.448;9.056;2022-08-01T10:30:04;26.70;99.60
34147;DHT22;20423;49.448;9.056;2022-08-01T10:32:31;26.80;99.30
34147;DHT22;20423;49.448;9.056;2022-08-01T10:34:58;27.10;98.20
34147;DHT22;20423;49.448;9.056;2022-08-01T10:37:25;27.30;97.40
34147;DHT22;20423;49.448;9.056;2022-08-01T10:39:51;27.80;97.50
34147;DHT22;20423;49.448;9.056;2022-08-01T10:42:18;28.50;96.80
34147;DHT22;20423;49.448;9.056;2022-08-01T10:44:45;29.00;96.40
34147;DHT22;20423;49.448;9.056;2022-08-01T10:47:18;29.30;95.40
34147;DHT22;20423;49.448;9.056;2022-08-01T10:49:50;28.70;95.30
34147;DHT22;20423;49.448;9.056;2022-08-01T10:52:16;28.00;96.10
34147;DHT22;20423;49.448;9.056;2022-08-01T10:54:43;28.10;95.50
34147;DHT22;20423;49.448;9.056;2022-08-01T10:57:09;28.10;95.60
34147;DHT22;20423;49.448;9.056;2022-08-01T10:59:50;27.20;97.00
34147;DHT22;20423;49.448;9.056;2022-08-01T11:02:31;26.60;98.30
34147;DHT22;20423;49.448;9.056;2022-08-01T11:05:04;27.10;98.50
34147;DHT22;20423;49.448;9.056;2022-08-01T11:07:51;27.40;98.20
34147;DHT22;20423;49.448;9.056;2022-08-01T11:10:39;27.70;97.90
34147;DHT22;20423;49.448;9.056;2022-08-01T11:13:06;27.90;97.40
34147;DHT22;20423;49.448;9.056;2022-08-01T11:15:37;28.20;97.70
34147;DHT22;20423;49.448;9.056;2022-08-01T11:18:36;29.10;96.20
34147;DHT22;20423;49.448;9.056;2022-08-01T11:21:03;28.50;95.30
34147;DHT22;20423;49.448;9.056;2022-08-01T11:23:30;28.60;96.00
34147;DHT22;20423;49.448;9.056;2022-08-01T11:28:27;28.70;93.00
34147;DHT22;20423;49.448;9.056;2022-08-01T11:39:10;26.70;96.80
34147;DHT22;20423;49.448;9.056;2022-08-01T11:41:38;26.80;97.80
34147;DHT22;20423;49.448;9.056;2022-08-01T11:52:08;28.30;94.80
34147;DHT22;20423;49.448;9.056;2022-08-01T11:57:21;28.90;94.40
34147;DHT22;20423;49.448;9.056;2022-08-01T12:00:22;29.20;93.30
34147;DHT22;20423;49.448;9.056;2022-08-01T12:02:57;29.00;93.30
34147;DHT22;20423;49.448;9.056;2022-08-01T12:05:23;29.40;93.00
34147;DHT22;20423;49.448;9.056;2022-08-01T12:07:51;29.00;93.00
34147;DHT22;20423;49.448;9.056;2022-08-01T12:10:49;28.60;93.20
34147;DHT22;20423;49.448;9.056;2022-08-01T12:13:15;28.40;94.10
34147;DHT22;20423;49.448;9.056;2022-08-01T12:15:41;28.60;94.50
34147;DHT22;20423;49.448;9.056;2022-08-01T12:18:07;28.60;94.20
34147;DHT22;20423;49.448;9.056;2022-08-01T12:21:02;28.80;93.80
34147;DHT22;20423;49.448;9.056;2022-08-01T12:23:28;28.50;93.60
34147;DHT22;20423;49.448;9.056;2022-08-01T12:25:53;27.70;94.70
34147;DHT22;20423;49.448;9.056;2022-08-01T12:28:19;27.80;95.50
34147;DHT22;20423;49.448;9.056;2022-08-01T12:30:47;28.10;94.70
34147;DHT22;20423;49.448;9.056;2022-08-01T12:33:17;28.20;94.20
34147;DHT22;20423;49.448;9.056;2022-08-01T12:35:44;27.80;94.10
34147;DHT22;20423;49.448;9.056;2022-08-01T12:38:20;27.80;94.60
34147;DHT22;20423;49.448;9.056;2022-08-01T12:40:50;28.00;94.00
34147;DHT22;20423;49.448;9.056;2022-08-01T12:43:18;28.70;93.40
34147;DHT22;20423;49.448;9.056;2022-08-01T12:45:45;29.60;92.90
34147;DHT22;20423;49.448;9.056;2022-08-01T12:48:13;29.70;91.20
34147;DHT22;20423;49.448;9.056;2022-08-01T12:50:42;29.50;91.40
34147;DHT22;20423;49.448;9.056;2022-08-01T12:53:11;29.50;92.10
34147;DHT22;20423;49.448;9.056;2022-08-01T12:55:47;29.50;89.90
34147;DHT22;20423;49.448;9.056;2022-08-01T12:58:14;29.00;91.10
34147;DHT22;20423;49.448;9.056;2022-08-01T13:00:42;28.50;91.90
34147;DHT22;20423;49.448;9.056;2022-08-01T13:03:13;28.40;90.60
34147;DHT22;20423;49.448;9.056;2022-08-01T13:05:52;29.00;91.50
34147;DHT22;20423;49.448;9.056;2022-08-01T13:08:41;29.40;90.30
34147;DHT22;20423;49.448;9.056;2022-08-01T13:11:09;29.90;90.10
34147;DHT22;20423;49.448;9.056;2022-08-01T13:13:40;30.20;90.00
34147;DHT22;20423;49.448;9.056;2022-08-01T13:16:06;29.90;87.70
34147;DHT22;20423;49.448;9.056;2022-08-01T13:18:33;30.00;88.20
34147;DHT22;20423;49.448;9.056;2022-08-01T13:21:17;29.60;86.70
34147;DHT22;20423;49.448;9.056;2022-08-01T13:24:05;29.60;86.20
34147;DHT22;20423;49.448;9.056;2022-08-01T13:29:10;29.80;90.30
34147;DHT22;20423;49.448;9.056;2022-08-01T13:31:37;29.50;87.00
34147;DHT22;20423;49.448;9.056;2022-08-01T13:34:03;29.60;87.50
34147;DHT22;20423;49.448;9.056;2022-08-01T13:36:29;30.20;87.80
34147;DHT22;20423;49.448;9.056;2022-08-01T13:39:01;30.50;86.30
34147;DHT22;20423;49.448;9.056;2022-08-01T13:41:46;30.50;86.80
34147;DHT22;20423;49.448;9.056;2022-08-01T13:44:12;30.20;85.10
34147;DHT22;20423;49.448;9.056;2022-08-01T13:46:39;30.20;86.40
34147;DHT22;20423;49.448;9.056;2022-08-01T13:52:53;30.20;86.80
34147;DHT22;20423;49.448;9.056;2022-08-01T13:55:19;29.90;87.70
34147;DHT22;20423;49.448;9.056;2022-08-01T13:57:45;29.40;87.00
34147;DHT22;20423;49.448;9.056;2022-08-01T14:00:11;29.30;87.90
34147;DHT22;20423;49.448;9.056;2022-08-01T14:02:39;29.30;88.80
34147;DHT22;20423;49.448;9.056;2022-08-01T14:05:06;28.60;90.10
34147;DHT22;20423;49.448;9.056;2022-08-01T14:07:33;28.20;90.40
34147;DHT22;20423;49.448;9.056;2022-08-01T14:10:17;27.80;91.10
34147;DHT22;20423;49.448;9.056;2022-08-01T14:12:43;28.00;91.50
34147;DHT22;20423;49.448;9.056;2022-08-01T14:15:47;28.40;90.60
34147;DHT22;20423;49.448;9.056;2022-08-01T14:18:13;28.60;90.50
34147;DHT22;20423;49.448;9.056;2022-08-01T14:20:39;28.90;90.10
34147;DHT22;20423;49.448;9.056;2022-08-01T14:23:05;28.90;90.10
34147;DHT22;20423;49.448;9.056;2022-08-01T14:25:32;29.10;90.00
34147;DHT22;20423;49.448;9.056;2022-08-01T14:27:58;29.30;89.70
34147;DHT22;20423;49.448;9.056;2022-08-01T14:30:23;29.00;88.40
34147;DHT22;20423;49.448;9.056;2022-08-01T14:32:49;28.50;88.20
34147;DHT22;20423;49.448;9.056;2022-08-01T14:35:15;28.30;88.30
34147;DHT22;20423;49.448;9.056;2022-08-01T14:37:41;28.00;89.60
34147;DHT22;20423;49.448;9.056;2022-08-01T14:40:09;27.70;90.30
34147;DHT22;20423;49.448;9.056;2022-08-01T14:42:36;27.50;90.70
34147;DHT22;20423;49.448;9.056;2022-08-01T14:45:03;27.50;91.10
34147;DHT22;20423;49.448;9.056;2022-08-01T14:47:40;27.70;91.10
34147;DHT22;20423;49.448;9.056;2022-08-01T14:50:09;27.90;90.70
34147;DHT22;20423;49.448;9.056;2022-08-01T14:52:37;27.80;90.90
34147;DHT22;20423;49.448;9.056;2022-08-01T14:55:05;28.10;90.50
34147;DHT22;20423;49.448;9.056;2022-08-01T14:57:32;27.80;90.30
34147;DHT22;20423;49.448;9.056;2022-08-01T14:59:57;27.70;91.10
34147;DHT22;20423;49.448;9.056;2022-08-01T15:02:23;27.70;91.10
34147;DHT22;20423;49.448;9.056;2022-08-01T15:04:49;27.60;90.90
34147;DHT22;20423;49.448;9.056;2022-08-01T15:07:17;27.70;90.80
34147;DHT22;20423;49.448;9.056;2022-08-01T15:09:43;28.30;91.70
34147;DHT22;20423;49.448;9.056;2022-08-01T15:12:12;29.00;90.00
34147;DHT22;20423;49.448;9.056;2022-08-01T15:14:51;29.40;90.00
34147;DHT22;20423;49.448;9.056;2022-08-01T15:17:26;29.10;90.00
34147;DHT22;20423;49.448;9.056;2022-08-01T15:19:58;28.40;90.60
34147;DHT22;20423;49.448;9.056;2022-08-01T15:22:25;28.00;90.80
34147;DHT22;20423;49.448;9.056;2022-08-01T15:24:52;27.70;91.50
34147;DHT22;20423;49.448;9.056;2022-08-01T15:27:28;27.30;91.90
34147;DHT22;20423;49.448;9.056;2022-08-01T15:29:55;27.30;92.00
34147;DHT22;20423;49.448;9.056;2022-08-01T15:32:21;27.30;92.20
34147;DHT22;20423;49.448;9.056;2022-08-01T15:34:48;27.30;92.40
34147;DHT22;20423;49.448;9.056;2022-08-01T15:37:14;27.30;92.30
34147;DHT22;20423;49.448;9.056;2022-08-01T15:39:40;27.80;92.20
34147;DHT22;20423;49.448;9.056;2022-08-01T15:42:11;28.20;91.80
34147;DHT22;20423;49.448;9.056;2022-08-01T15:44:37;28.70;91.10
34147;DHT22;20423;49.448;9.056;2022-08-01T15:47:03;28.50;90.80
34147;DHT22;20423;49.448;9.056;2022-08-01T15:49:30;28.50;90.70
34147;DHT22;20423;49.448;9.056;2022-08-01T15:51:56;28.40;91.40
34147;DHT22;20423;49.448;9.056;2022-08-01T15:54:22;28.00;91.40
34147;DHT22;20423;49.448;9.056;2022-08-01T15:56:49;27.40;92.00
34147;DHT22;20423;49.448;9.056;2022-08-01T15:59:15;27.20;92.20
34147;DHT22;20423;49.448;9.056;2022-08-01T16:01:41;26.70;92.60
34147;DHT22;20423;49.448;9.056;2022-08-01T16:04:06;26.50;93.20
34147;DHT22;20423;49.448;9.056;2022-08-01T16:06:33;26.60;93.00
34147;DHT22;20423;49.448;9.056;2022-08-01T16:08:59;26.50;93.20
34147;DHT22;20423;49.448;9.056;2022-08-01T16:11:25;26.40;93.60
34147;DHT22;20423;49.448;9.056;2022-08-01T16:13:55;26.30;93.90
34147;DHT22;20423;49.448;9.056;2022-08-01T16:16:22;26.00;94.10
34147;DHT22;20423;49.448;9.056;2022-08-01T16:18:48;25.70;94.80
34147;DHT22;20423;49.448;9.056;2022-08-01T16:21:14;25.70;95.00
34147;DHT22;20423;49.448;9.056;2022-08-01T16:23:41;25.60;95.10
34147;DHT22;20423;49.448;9.056;2022-08-01T16:26:07;25.50;95.10
34147;DHT22;20423;49.448;9.056;2022-08-01T16:28:33;25.40;95.60
34147;DHT22;20423;49.448;9.056;2022-08-01T16:31:00;25.40;96.00
34147;DHT22;20423;49.448;9.056;2022-08-01T16:33:26;25.40;95.60
34147;DHT22;20423;49.448;9.056;2022-08-01T16:35:52;25.50;95.90
34147;DHT22;20423;49.448;9.056;2022-08-01T16:38:18;25.50;95.60
34147;DHT22;20423;49.448;9.056;2022-08-01T16:40:44;25.50;95.80